createdAt,value
2019-06-27T03:59:12.513Z,29.80
2019-06-27T04:01:58.176Z,29.80
2019-06-27T04:04:53.140Z,29.80
2019-06-27T04:07:47.483Z,29.80
2019-06-27T04:10:42.397Z,29.80
2019-06-27T04:13:37.309Z,29.80
2019-06-27T04:16:32.154Z,29.80
2019-06-27T04:19:27.152Z,29.80
2019-06-27T04:22:22.793Z,29.70
2019-06-27T04:25:16.790Z,29.70
2019-06-27T04:28:10.316Z,29.70
2019-06-27T04:31:04.217Z,29.70
2019-06-27T04:33:58.061Z,29.70
2019-06-27T04:36:52.343Z,29.80
2019-06-27T04:39:52.528Z,29.80
2019-06-27T04:42:49.021Z,29.80
2019-06-27T04:45:43.498Z,29.80
2019-06-27T04:48:38.725Z,29.80
2019-06-27T04:51:34.683Z,29.80
2019-06-27T04:54:30.539Z,29.80
2019-06-27T04:57:25.749Z,29.80
2019-06-27T05:00:22.007Z,29.80
2019-06-27T05:03:15.916Z,29.80
2019-06-27T05:06:12.416Z,29.80
2019-06-27T05:09:07.402Z,29.80
2019-06-27T05:12:01.601Z,29.80
2019-06-27T05:14:56.290Z,29.80
2019-06-27T05:17:51.035Z,29.80
2019-06-27T05:20:44.779Z,29.90
2019-06-27T05:23:39.523Z,30.00
2019-06-27T05:26:35.533Z,30.00
2019-06-27T05:29:34.549Z,30.10
2019-06-27T05:32:30.365Z,30.10
2019-06-27T05:35:25.086Z,30.10
2019-06-27T05:38:20.915Z,30.10
2019-06-27T05:41:16.787Z,30.20
2019-06-27T05:44:12.100Z,30.20
2019-06-27T05:47:05.581Z,30.20
2019-06-27T05:50:00.856Z,30.20
2019-06-27T05:52:55.292Z,30.20
2019-06-27T05:55:49.949Z,30.20
2019-06-27T05:58:45.952Z,30.10
2019-06-27T06:01:44.416Z,29.60
2019-06-27T06:04:38.180Z,29.40
2019-06-27T06:10:20.877Z,29.00
2019-06-27T06:13:26.448Z,28.70
2019-06-27T06:16:23.720Z,28.50
2019-06-27T06:22:12.258Z,27.90
2019-06-27T06:25:06.722Z,27.70
2019-06-27T06:27:59.769Z,27.40
2019-06-27T06:30:56.721Z,27.30
2019-06-27T06:33:50.262Z,27.10
2019-06-27T06:36:47.687Z,27.10
2019-06-27T06:39:44.984Z,26.90
2019-06-27T06:42:46.284Z,26.90
2019-06-27T06:45:41.066Z,26.80
2019-06-27T06:48:37.538Z,26.80
2019-06-27T06:51:34.329Z,26.60
2019-06-27T06:54:31.385Z,26.50
2019-06-27T06:57:27.368Z,26.50
2019-06-27T07:00:26.795Z,26.30
2019-06-27T07:03:26.343Z,26.40
2019-06-27T07:06:20.177Z,26.20
2019-06-27T07:09:15.189Z,26.10
2019-06-27T07:12:14.057Z,26.00
2019-06-27T07:15:11.676Z,25.90
2019-06-27T07:18:05.567Z,25.90
2019-06-27T07:21:01.606Z,25.80
2019-06-27T07:23:58.213Z,25.80
2019-06-27T07:26:55.471Z,25.70
2019-06-27T07:29:49.848Z,25.70
2019-06-27T07:32:43.787Z,25.70
2019-06-27T07:35:39.861Z,25.70
2019-06-27T07:38:34.623Z,25.70
2019-06-27T07:41:29.732Z,25.60
2019-06-27T07:44:25.444Z,25.50
2019-06-27T07:47:28.176Z,25.50
2019-06-27T07:50:26.984Z,25.50
2019-06-27T07:53:21.325Z,25.50
2019-06-27T07:56:17.211Z,25.40
2019-06-27T07:59:15.529Z,25.40
2019-06-27T08:02:16.272Z,25.40
2019-06-27T08:05:10.239Z,25.30
2019-06-27T08:08:06.017Z,25.30
2019-06-27T08:11:03.136Z,25.30
2019-06-27T08:13:59.979Z,25.30
2019-06-27T08:16:57.007Z,25.10
2019-06-27T08:19:55.086Z,25.20
2019-06-27T08:22:51.952Z,25.20
2019-06-27T08:25:46.828Z,25.10
2019-06-27T08:28:43.729Z,25.30
2019-06-27T08:31:50.879Z,25.10
2019-06-27T08:34:38.170Z,25.10
2019-06-27T08:37:33.444Z,25.10
2019-06-27T08:40:30.282Z,25.00
2019-06-27T08:43:24.359Z,25.10
2019-06-27T08:46:18.631Z,25.10
2019-06-27T08:49:14.188Z,25.00
2019-06-27T08:52:09.239Z,24.90
2019-06-27T08:55:05.180Z,25.00
2019-06-27T08:57:59.939Z,25.00
2019-06-27T09:00:53.698Z,25.00
2019-06-27T09:03:48.611Z,25.00
2019-06-27T09:06:43.392Z,24.90
2019-06-27T09:09:39.926Z,25.00
2019-06-27T09:12:34.282Z,25.10
2019-06-27T09:15:26.988Z,25.20
2019-06-27T09:18:20.418Z,25.40
2019-06-27T09:21:17.722Z,25.80
2019-06-27T09:24:11.346Z,26.20
2019-06-27T09:27:04.336Z,26.50
2019-06-27T09:29:58.198Z,26.80
2019-06-27T09:32:53.590Z,27.10
2019-06-27T09:35:46.799Z,27.30
2019-06-27T09:38:42.677Z,27.50
2019-06-27T09:41:36.463Z,27.50
2019-06-27T09:44:30.935Z,27.10
2019-06-27T09:47:26.929Z,26.90
2019-06-27T09:50:23.042Z,26.80
2019-06-27T09:53:16.688Z,26.80
2019-06-27T09:56:10.494Z,26.70
2019-06-27T09:59:13.315Z,26.70
2019-06-27T10:02:09.759Z,26.70
2019-06-27T10:05:05.885Z,26.50
2019-06-27T10:08:02.094Z,26.60
2019-06-27T10:10:56.891Z,26.60
2019-06-27T10:14:01.744Z,26.50
2019-06-27T10:17:01.040Z,26.60
2019-06-27T10:19:58.581Z,26.50
2019-06-27T10:22:53.758Z,26.40
2019-06-27T10:25:49.647Z,26.40
2019-06-27T10:28:43.913Z,26.40
2019-06-27T10:31:42.186Z,26.60
2019-06-27T10:34:37.268Z,27.30
2019-06-27T10:37:31.678Z,27.70
2019-06-27T10:40:26.557Z,27.90
2019-06-27T10:43:20.887Z,28.10
2019-06-27T10:46:16.502Z,28.20
2019-06-27T10:49:16.469Z,28.40
2019-06-27T10:52:35.898Z,28.50
2019-06-27T10:55:30.998Z,28.60
2019-06-27T10:58:28.806Z,28.70
2019-06-27T11:01:22.132Z,28.80
2019-06-27T11:04:17.015Z,28.80
2019-06-27T11:07:13.315Z,28.90
2019-06-27T11:10:09.022Z,29.00
2019-06-27T11:13:04.004Z,29.00
2019-06-27T11:15:59.912Z,29.10
2019-06-27T11:18:55.235Z,29.20
2019-06-27T11:21:49.362Z,29.20
2019-06-27T11:24:44.374Z,29.30
2019-06-27T11:27:38.918Z,29.30
2019-06-27T11:30:33.549Z,29.40
2019-06-27T11:33:32.678Z,29.40
2019-06-27T11:36:23.926Z,29.40
2019-06-27T11:39:23.143Z,29.40
2019-06-27T11:42:23.242Z,29.50
2019-06-27T11:45:19.680Z,29.50
2019-06-27T11:48:14.555Z,29.60
2019-06-27T11:51:13.452Z,29.60
2019-06-27T11:54:09.723Z,29.70
2019-06-27T11:57:05.202Z,29.70
2019-06-27T12:00:01.604Z,29.70
2019-06-27T12:02:57.708Z,29.70
2019-06-27T12:05:52.226Z,29.70
2019-06-27T12:08:47.739Z,29.70
2019-06-27T12:11:43.684Z,29.70
2019-06-27T12:14:40.062Z,29.70
2019-06-27T12:17:35.854Z,29.70
2019-06-27T12:20:31.067Z,29.80
2019-06-27T12:23:25.756Z,29.80
2019-06-27T12:26:19.861Z,29.80
2019-06-27T12:29:16.973Z,29.80
2019-06-27T12:32:13.270Z,29.80
2019-06-27T12:35:14.734Z,29.90
2019-06-27T12:38:09.190Z,29.80
2019-06-27T12:41:04.040Z,29.80
2019-06-27T12:43:58.362Z,29.90
2019-06-27T12:46:55.014Z,29.90
2019-06-27T12:50:01.491Z,29.90
2019-06-27T12:52:44.486Z,29.90
2019-06-27T12:55:39.863Z,29.90
2019-06-27T12:58:34.906Z,30.00
2019-06-27T13:01:30.063Z,30.00
2019-06-27T13:04:24.559Z,30.00
2019-06-27T13:07:20.654Z,30.00
2019-06-27T13:10:15.373Z,30.00
2019-06-27T13:13:09.893Z,30.10
2019-06-27T13:16:05.547Z,30.10
2019-06-27T13:18:59.392Z,30.10
2019-06-27T13:21:53.585Z,30.20
2019-06-27T13:24:47.277Z,30.20
2019-06-27T13:30:34.221Z,30.10
2019-06-27T13:33:29.243Z,30.10
2019-06-27T13:36:22.547Z,30.10
2019-06-27T13:39:17.086Z,30.20
2019-06-27T13:42:13.297Z,30.20
2019-06-27T13:45:07.491Z,30.30
2019-06-27T13:48:01.746Z,30.20
2019-06-27T13:50:57.747Z,30.20
2019-06-27T13:53:51.670Z,30.20
2019-06-27T13:56:46.387Z,30.10
2019-06-27T13:59:41.911Z,30.10
2019-06-27T14:02:35.527Z,30.00
2019-06-27T14:05:28.974Z,30.00
2019-06-27T14:08:25.199Z,30.00
2019-06-27T14:11:17.505Z,29.90
2019-06-27T14:14:12.146Z,29.90
2019-06-27T14:17:06.822Z,29.90
2019-06-27T14:20:00.022Z,29.90
2019-06-27T14:22:53.755Z,29.90
2019-06-27T14:25:48.068Z,29.90
2019-06-27T14:28:42.915Z,29.90
